Terminal Aerodrome Forecast
Issued by NWS Jacksonville, FL

Home | Current Version | Previous Version | Text Only | Print | Product List | Glossary On
Versions: 1 2 3 4 5 6 7 8 9 10 11 12 13 14 15 16 17 18 19 20 21 22 23 24 25
000
FTUS42 KJAX 202300
TAFJAX
TAF
KJAX 202323Z 2100/2124 01008KT P6SM VCSH SCT015 BKN050
      TEMPO 2100/2102 6SM RA BR BKN012
     FM210500 33005KT P6SM FEW025 SCT250
     FM211800 06005KT P6SM FEW250=

USA.gov is the U.S. government's official web portal to all federal, state and local government web resources and services.